createdAt,value
2019-05-09T19:33:21.358Z,22.50
2019-05-09T19:35:25.677Z,16.60
2019-05-09T19:37:29.897Z,16.50
2019-05-09T19:39:34.086Z,16.40
2019-05-09T19:41:38.697Z,16.10
2019-05-09T19:43:42.963Z,16.00
2019-05-09T19:51:58.214Z,15.90
2019-05-09T19:56:06.109Z,15.90
2019-05-09T19:58:10.280Z,15.90
2019-05-09T20:00:16.822Z,15.90
2019-05-09T20:02:21.011Z,15.90
2019-05-09T20:04:25.359Z,15.80
2019-05-09T20:06:29.566Z,15.70
2019-05-09T20:08:34.387Z,15.60
2019-05-09T20:10:56.777Z,15.60
2019-05-09T20:13:32.169Z,15.70
2019-05-09T20:15:36.474Z,15.60
2019-05-09T20:17:40.774Z,15.60
2019-05-09T20:19:45.167Z,15.60
2019-05-09T20:21:49.363Z,15.60
2019-05-09T20:23:53.576Z,15.50
2019-05-09T20:25:57.953Z,15.40
2019-05-09T20:28:02.772Z,15.30
2019-05-09T20:30:08.599Z,15.30
2019-05-09T20:32:12.887Z,15.10
2019-05-09T20:34:17.188Z,15.00
2019-05-09T20:36:21.460Z,15.00
2019-05-09T20:38:25.853Z,14.90
2019-05-09T20:40:30.282Z,15.00
2019-05-09T20:42:34.741Z,14.90
2019-05-09T20:44:39.123Z,14.90
2019-05-09T20:46:43.472Z,14.90
2019-05-09T20:48:47.909Z,14.90
2019-05-09T20:50:52.332Z,14.90
2019-05-09T20:53:09.162Z,14.70
2019-05-09T20:55:02.849Z,14.80
2019-05-09T20:57:07.203Z,14.80
2019-05-09T20:59:11.574Z,14.80
2019-05-09T21:01:16.091Z,14.70
2019-05-09T21:03:20.554Z,14.80
2019-05-09T21:05:24.913Z,14.70
2019-05-09T21:07:29.352Z,14.60
2019-05-09T21:09:33.696Z,14.60
2019-05-09T21:11:38.141Z,14.50
2019-05-09T21:13:48.541Z,14.50
2019-05-09T21:15:48.788Z,14.30
2019-05-09T21:17:53.244Z,14.30
2019-05-09T21:19:57.602Z,14.40
2019-05-09T21:22:02.224Z,14.40
2019-05-09T21:24:06.581Z,14.50
2019-05-09T21:26:11.051Z,14.30
2019-05-09T21:28:15.424Z,14.30
2019-05-09T21:30:20.799Z,14.30
2019-05-09T21:32:25.234Z,14.30
2019-05-09T21:34:29.606Z,14.30
2019-05-09T21:36:33.856Z,14.20
2019-05-09T21:38:38.017Z,14.20
2019-05-09T21:40:42.184Z,14.10
2019-05-09T21:42:46.404Z,14.10
2019-05-09T21:44:50.588Z,14.10
2019-05-09T21:46:54.831Z,14.20
2019-05-09T21:48:59.074Z,14.20
2019-05-09T21:51:03.265Z,14.10
2019-05-09T21:53:07.412Z,14.10
2019-05-09T21:55:11.699Z,14.00
2019-05-09T21:57:15.886Z,14.00
2019-05-09T21:59:20.113Z,14.10
2019-05-09T22:01:24.858Z,13.70
2019-05-09T22:03:29.007Z,13.70
2019-05-09T22:05:33.179Z,13.70
2019-05-09T22:07:37.327Z,13.60
2019-05-09T22:09:41.483Z,13.60
2019-05-09T22:11:45.735Z,13.60
2019-05-09T22:13:49.972Z,13.60
2019-05-09T22:15:54.224Z,13.60
2019-05-09T22:17:58.408Z,13.70
2019-05-09T22:20:02.885Z,13.80
2019-05-09T22:22:07.129Z,13.80
2019-05-09T22:24:11.302Z,13.70
2019-05-09T22:26:15.501Z,13.70
2019-05-09T22:28:20.317Z,13.70
2019-05-09T22:30:24.591Z,13.80
2019-05-09T22:32:28.985Z,13.80
2019-05-09T22:34:33.405Z,13.60
2019-05-09T22:36:37.659Z,13.50
2019-05-09T22:38:43.724Z,13.60
2019-05-09T22:40:48.066Z,13.50
2019-05-09T22:42:52.316Z,13.50
2019-05-09T22:44:56.525Z,13.50
2019-05-09T22:47:00.671Z,13.60
2019-05-09T22:49:04.949Z,13.50
2019-05-09T22:51:09.140Z,13.50
2019-05-09T22:53:13.406Z,13.50
2019-05-09T22:55:18.066Z,13.40
2019-05-09T22:57:22.261Z,13.30
2019-05-09T22:59:26.488Z,13.30
2019-05-09T23:01:30.758Z,13.30
2019-05-09T23:03:35.048Z,13.20
2019-05-09T23:05:39.286Z,13.30
2019-05-09T23:07:43.516Z,13.30
2019-05-09T23:09:47.738Z,13.20
2019-05-09T23:11:51.907Z,13.10
2019-05-09T23:13:56.150Z,13.00
2019-05-09T23:16:00.303Z,13.00
2019-05-09T23:18:04.552Z,12.90
2019-05-09T23:20:12.217Z,12.90
2019-05-09T23:22:16.706Z,13.00
2019-05-09T23:24:28.434Z,12.90
